createdAt,value
2023-02-28T00:02:50.805Z,12.98
2023-02-28T00:05:18.942Z,14.82
2023-02-28T00:07:45.612Z,17.73
2023-02-28T00:10:13.649Z,12.65
2023-02-28T00:12:40.234Z,11.27
2023-02-28T00:15:07.653Z,11.68
2023-02-28T00:17:34.187Z,12.82
2023-02-28T00:20:12.838Z,11.80
2023-02-28T00:22:40.640Z,21.08
2023-02-28T00:25:08.118Z,10.20
2023-02-28T00:27:36.237Z,10.02
2023-02-28T00:30:05.200Z,10.98
2023-02-28T00:32:31.807Z,10.50
2023-02-28T00:34:58.369Z,11.50
2023-02-28T00:37:24.966Z,8.75
2023-02-28T00:39:51.524Z,9.65
2023-02-28T00:42:18.110Z,9.55
2023-02-28T00:44:44.616Z,10.50
2023-02-28T00:47:11.895Z,12.55
2023-02-28T00:49:38.674Z,11.20
2023-02-28T00:52:05.223Z,11.63
2023-02-28T00:54:31.813Z,11.55
2023-02-28T00:56:58.425Z,11.63
2023-02-28T00:59:25.500Z,11.70
2023-02-28T01:01:52.482Z,12.77
2023-02-28T01:04:19.253Z,10.80
2023-02-28T01:06:45.839Z,9.55
2023-02-28T01:09:12.744Z,10.85
2023-02-28T01:11:40.116Z,10.52
2023-02-28T01:14:06.620Z,13.20
2023-02-28T01:16:33.206Z,12.15
2023-02-28T01:18:59.767Z,11.35
2023-02-28T01:21:27.189Z,9.82
2023-02-28T01:23:57.191Z,14.00
2023-02-28T01:26:24.149Z,10.80
2023-02-28T01:28:51.868Z,10.37
2023-02-28T01:33:46.615Z,13.95
2023-02-28T01:36:14.695Z,14.18
2023-02-28T01:38:41.649Z,11.90
2023-02-28T01:41:09.140Z,10.93
2023-02-28T01:43:44.629Z,11.77
2023-02-28T01:46:12.869Z,12.75
2023-02-28T01:48:43.013Z,16.80
2023-02-28T01:51:12.286Z,13.60
2023-02-28T01:53:42.278Z,10.27
2023-02-28T01:56:10.867Z,11.75
2023-02-28T01:58:38.027Z,20.40
2023-02-28T02:01:05.226Z,12.88
2023-02-28T02:03:33.464Z,14.02
2023-02-28T02:06:00.119Z,14.32
2023-02-28T02:08:29.105Z,14.05
2023-02-28T02:10:55.614Z,13.65
2023-02-28T02:13:41.701Z,14.82
2023-02-28T02:16:11.369Z,13.57
2023-02-28T02:18:47.879Z,16.15
2023-02-28T02:21:43.500Z,14.10
2023-02-28T02:24:16.914Z,15.60
2023-02-28T02:26:58.554Z,15.48
2023-02-28T02:29:39.257Z,12.65
2023-02-28T02:32:24.795Z,11.50
2023-02-28T02:34:59.779Z,14.15
2023-02-28T02:37:32.178Z,13.48
2023-02-28T02:40:09.020Z,12.15
2023-02-28T02:42:35.562Z,12.63
2023-02-28T02:45:05.535Z,13.68
2023-02-28T02:47:32.773Z,13.13
2023-02-28T02:50:02.139Z,11.75
2023-02-28T02:52:35.781Z,13.13
2023-02-28T02:55:05.214Z,13.75
2023-02-28T02:57:34.740Z,12.77
2023-02-28T03:00:02.565Z,12.18
2023-02-28T03:02:35.455Z,13.75
2023-02-28T03:05:03.902Z,11.63
2023-02-28T03:07:30.646Z,14.20
2023-02-28T03:09:58.490Z,12.38
2023-02-28T03:12:32.269Z,14.70
2023-02-28T03:15:11.585Z,17.75
2023-02-28T03:17:38.193Z,11.80
2023-02-28T03:20:23.668Z,15.38
2023-02-28T03:22:52.156Z,12.80
2023-02-28T03:25:29.261Z,11.80
2023-02-28T03:28:02.889Z,12.32
2023-02-28T03:30:41.677Z,15.93
2023-02-28T03:33:14.038Z,14.77
2023-02-28T03:35:51.738Z,12.80
2023-02-28T03:40:51.152Z,11.80
2023-02-28T03:43:22.804Z,12.63
2023-02-28T03:45:50.532Z,15.10
2023-02-28T03:48:20.697Z,13.95
2023-02-28T03:50:50.206Z,14.65
2023-02-28T03:53:16.821Z,16.42
2023-02-28T03:55:46.178Z,13.65
2023-02-28T03:58:28.059Z,15.32
2023-02-28T04:01:09.213Z,13.55
2023-02-28T04:03:37.280Z,17.08
2023-02-28T04:08:30.332Z,13.50
2023-02-28T04:11:01.278Z,17.17
2023-02-28T04:13:27.828Z,16.40
2023-02-28T04:15:54.528Z,15.90
2023-02-28T04:18:21.042Z,14.73
2023-02-28T04:20:47.627Z,12.63
2023-02-28T04:23:14.229Z,11.60
2023-02-28T04:25:41.418Z,13.73
2023-02-28T04:28:08.206Z,14.70
2023-02-28T04:30:34.874Z,13.80
2023-02-28T04:33:01.494Z,12.93
2023-02-28T04:35:28.184Z,9.55
2023-02-28T04:37:54.782Z,13.73
2023-02-28T04:40:21.348Z,11.15
2023-02-28T04:42:47.884Z,10.18
2023-02-28T04:45:14.531Z,10.32
2023-02-28T04:47:41.055Z,12.38
2023-02-28T04:50:07.995Z,9.25
2023-02-28T04:52:34.529Z,10.40
2023-02-28T04:55:01.060Z,15.10
2023-02-28T04:57:27.688Z,10.25
2023-02-28T04:59:54.244Z,11.82
2023-02-28T05:02:22.142Z,10.82
2023-02-28T05:07:15.219Z,10.65
2023-02-28T05:09:41.763Z,10.57
2023-02-28T05:12:09.620Z,11.15
2023-02-28T05:14:36.187Z,11.60
2023-02-28T05:17:02.823Z,15.00
2023-02-28T05:19:29.505Z,13.35
2023-02-28T05:21:56.581Z,13.13
2023-02-28T05:24:25.848Z,11.65
2023-02-28T05:26:53.954Z,11.50
2023-02-28T05:29:20.625Z,13.93
2023-02-28T05:31:47.595Z,11.88
2023-02-28T05:34:16.527Z,9.37
2023-02-28T05:36:43.616Z,11.63
2023-02-28T05:39:13.734Z,11.30
2023-02-28T05:41:41.557Z,14.40
2023-02-28T05:44:08.214Z,12.20
2023-02-28T05:46:34.893Z,9.38
2023-02-28T05:49:01.874Z,10.27
2023-02-28T05:51:29.092Z,10.20
2023-02-28T05:53:56.038Z,10.55
2023-02-28T05:56:22.600Z,11.02
2023-02-28T05:58:49.135Z,11.60
2023-02-28T06:01:24.825Z,9.18
2023-02-28T06:03:51.592Z,14.18
2023-02-28T06:06:18.259Z,11.75
2023-02-28T06:08:45.795Z,11.25
2023-02-28T06:11:12.563Z,10.68
2023-02-28T06:13:39.278Z,13.88
2023-02-28T06:16:06.087Z,9.93
2023-02-28T06:18:32.905Z,13.85
2023-02-28T06:20:59.530Z,13.02
2023-02-28T06:23:26.144Z,13.13
2023-02-28T06:25:54.074Z,11.60
2023-02-28T06:30:47.104Z,10.23
2023-02-28T06:33:13.710Z,12.77
2023-02-28T06:35:40.519Z,9.38
2023-02-28T06:38:07.221Z,10.00
2023-02-28T06:40:36.061Z,13.93
2023-02-28T06:43:03.135Z,15.70
2023-02-28T06:45:29.736Z,10.73
2023-02-28T06:47:56.366Z,13.10
2023-02-28T06:50:22.928Z,10.45
2023-02-28T06:52:49.562Z,9.65
2023-02-28T06:55:16.166Z,13.70
2023-02-28T06:57:42.790Z,10.40
2023-02-28T07:00:09.975Z,13.23
2023-02-28T07:02:36.872Z,14.60
2023-02-28T07:05:03.577Z,13.98
2023-02-28T07:07:30.181Z,14.00
2023-02-28T07:09:57.497Z,15.18
2023-02-28T07:12:24.092Z,10.57
2023-02-28T07:14:50.694Z,10.70
2023-02-28T07:17:17.276Z,13.05
2023-02-28T07:19:43.956Z,10.95
2023-02-28T07:22:10.696Z,10.18
2023-02-28T07:24:37.210Z,10.00
2023-02-28T07:27:03.970Z,10.07
2023-02-28T07:29:30.601Z,12.55
2023-02-28T07:31:57.219Z,11.32
2023-02-28T07:34:24.148Z,10.73
2023-02-28T07:36:54.457Z,9.80
2023-02-28T07:39:21.957Z,12.07
2023-02-28T07:41:48.804Z,11.48
2023-02-28T07:44:15.760Z,8.27
2023-02-28T07:46:42.395Z,11.15
2023-02-28T07:49:09.185Z,11.07
2023-02-28T07:51:35.739Z,9.95
2023-02-28T07:54:02.319Z,12.35
2023-02-28T07:56:29.239Z,7.90
2023-02-28T07:58:56.238Z,7.63
2023-02-28T08:01:22.896Z,10.65
2023-02-28T08:03:49.583Z,8.15
2023-02-28T08:06:20.690Z,9.32
2023-02-28T08:08:47.533Z,7.93
2023-02-28T08:13:43.416Z,10.93
2023-02-28T08:16:10.568Z,4.55
2023-02-28T08:18:37.409Z,7.45
2023-02-28T08:21:08.099Z,4.30
2023-02-28T08:23:34.740Z,6.78
2023-02-28T08:26:01.268Z,5.57
2023-02-28T08:28:27.866Z,4.90
2023-02-28T08:30:54.955Z,3.72
2023-02-28T08:33:21.596Z,4.25
2023-02-28T08:35:48.214Z,6.72
2023-02-28T08:38:14.798Z,4.50
2023-02-28T08:40:41.609Z,4.72
2023-02-28T08:43:08.258Z,3.28
2023-02-28T08:45:34.871Z,5.40
2023-02-28T08:48:01.490Z,3.70
2023-02-28T08:50:28.325Z,4.70
2023-02-28T08:52:54.964Z,3.47
2023-02-28T08:55:21.567Z,4.90
2023-02-28T08:57:48.127Z,2.30
2023-02-28T09:00:14.860Z,3.08
2023-02-28T09:02:43.767Z,3.08
2023-02-28T09:05:11.105Z,2.58
2023-02-28T09:07:37.850Z,3.53
2023-02-28T09:10:04.585Z,3.95
2023-02-28T09:12:34.116Z,1.98
2023-02-28T09:15:00.649Z,1.83
2023-02-28T09:17:30.745Z,2.88
2023-02-28T09:19:58.374Z,2.80
2023-02-28T09:22:25.223Z,1.50
2023-02-28T09:24:51.804Z,1.52
2023-02-28T09:27:18.408Z,3.58
2023-02-28T09:29:44.987Z,2.80
2023-02-28T09:32:11.666Z,1.20
2023-02-28T09:34:38.399Z,1.65
2023-02-28T09:37:05.232Z,2.50
2023-02-28T09:39:32.752Z,3.08
2023-02-28T09:41:59.539Z,1.42
2023-02-28T09:44:26.085Z,2.33
2023-02-28T09:46:56.200Z,0.82
2023-02-28T09:49:24.779Z,1.13
2023-02-28T09:51:52.053Z,1.85
2023-02-28T09:54:25.256Z,0.75
2023-02-28T09:56:59.260Z,1.20
2023-02-28T09:59:36.557Z,5.25
2023-02-28T10:02:12.498Z,1.10
2023-02-28T10:04:58.655Z,1.35
2023-02-28T10:07:34.188Z,3.35
2023-02-28T10:10:03.597Z,2.15
2023-02-28T10:12:30.980Z,2.05
2023-02-28T10:14:59.754Z,3.08
2023-02-28T10:17:49.091Z,1.25
2023-02-28T10:20:23.784Z,1.65
2023-02-28T10:23:08.224Z,0.40
2023-02-28T10:25:35.807Z,2.15
2023-02-28T10:28:13.044Z,1.52
2023-02-28T10:30:42.350Z,0.88
2023-02-28T10:33:16.891Z,4.35
2023-02-28T10:35:43.571Z,3.33
2023-02-28T10:38:15.275Z,2.92
2023-02-28T10:40:41.931Z,5.90
2023-02-28T10:43:14.950Z,1.45
2023-02-28T10:45:53.911Z,1.35
2023-02-28T10:48:20.485Z,1.63
2023-02-28T10:50:53.009Z,1.10
2023-02-28T10:53:25.856Z,0.98
2023-02-28T10:56:13.474Z,1.38
2023-02-28T11:01:13.431Z,1.58
2023-02-28T11:03:40.031Z,1.58
2023-02-28T11:06:14.541Z,1.48
2023-02-28T11:08:52.127Z,1.55
2023-02-28T11:11:19.122Z,1.75
2023-02-28T11:13:47.095Z,1.23
2023-02-28T11:18:43.019Z,3.40
2023-02-28T11:21:10.335Z,4.65
2023-02-28T11:23:38.173Z,1.83
2023-02-28T11:26:12.024Z,1.08
2023-02-28T11:28:40.874Z,1.48
2023-02-28T11:31:14.965Z,1.90
2023-02-28T11:33:43.525Z,3.13
2023-02-28T11:36:15.193Z,2.85
2023-02-28T11:38:42.033Z,1.83
2023-02-28T11:41:08.571Z,3.55
2023-02-28T11:43:38.172Z,1.67
2023-02-28T11:46:16.671Z,3.85
2023-02-28T11:48:52.541Z,0.82
2023-02-28T11:51:28.711Z,1.10
2023-02-28T11:54:04.641Z,1.27
2023-02-28T11:56:39.438Z,2.67
2023-02-28T11:59:06.007Z,4.47
2023-02-28T12:01:37.780Z,2.60
2023-02-28T12:04:12.632Z,3.70
2023-02-28T12:06:47.993Z,1.67
2023-02-28T12:09:21.686Z,2.78
2023-02-28T12:12:06.363Z,1.95
2023-02-28T12:14:38.987Z,1.45
2023-02-28T12:17:20.521Z,1.25
2023-02-28T12:19:59.354Z,5.45
2023-02-28T12:22:30.974Z,3.05
2023-02-28T12:25:04.140Z,5.30
2023-02-28T12:27:32.455Z,2.35
2023-02-28T12:29:59.010Z,1.85
2023-02-28T12:32:31.508Z,1.00
2023-02-28T12:35:04.375Z,2.22
2023-02-28T12:37:34.886Z,1.88
2023-02-28T12:40:06.799Z,3.08
2023-02-28T12:42:36.199Z,2.63
2023-02-28T12:45:05.994Z,5.93
2023-02-28T12:47:32.591Z,7.90
2023-02-28T12:50:00.728Z,4.40
2023-02-28T12:52:36.354Z,2.75
2023-02-28T12:55:18.468Z,1.98
2023-02-28T12:58:08.246Z,1.77
2023-02-28T13:00:37.031Z,2.70
2023-02-28T13:03:03.541Z,3.70
2023-02-28T13:05:39.779Z,3.97
2023-02-28T13:08:25.008Z,2.42
2023-02-28T13:10:55.523Z,2.25
2023-02-28T13:13:26.897Z,2.72
2023-02-28T13:16:11.812Z,1.55
2023-02-28T13:18:47.838Z,2.30
2023-02-28T13:21:25.399Z,2.55
2023-02-28T13:23:59.359Z,2.00
2023-02-28T13:26:32.250Z,3.00
2023-02-28T13:29:00.640Z,1.60
2023-02-28T13:31:28.029Z,3.42
2023-02-28T13:34:00.542Z,4.18
2023-02-28T13:36:31.121Z,4.93
2023-02-28T13:39:03.059Z,2.17
2023-02-28T13:41:33.011Z,2.40
2023-02-28T13:44:01.193Z,1.23
2023-02-28T13:46:28.148Z,1.52
2023-02-28T13:48:54.771Z,2.83
2023-02-28T13:51:41.832Z,5.40
2023-02-28T13:54:18.010Z,2.60
2023-02-28T13:56:49.344Z,4.18
2023-02-28T13:59:34.593Z,2.00
2023-02-28T14:02:14.769Z,2.22
2023-02-28T14:04:59.375Z,6.38
2023-02-28T14:07:27.678Z,3.88
2023-02-28T14:10:06.417Z,2.85
2023-02-28T14:12:51.811Z,4.90
2023-02-28T14:15:36.460Z,1.38
2023-02-28T14:18:04.617Z,2.70
2023-02-28T14:20:33.433Z,1.80
2023-02-28T14:23:05.931Z,3.75
2023-02-28T14:25:41.330Z,2.75
2023-02-28T14:28:26.833Z,3.97
2023-02-28T14:31:00.871Z,2.67
2023-02-28T14:33:30.275Z,3.05
2023-02-28T14:35:56.848Z,3.00
2023-02-28T14:38:26.335Z,3.67
2023-02-28T14:40:54.250Z,4.88
2023-02-28T14:43:25.025Z,4.97
2023-02-28T14:45:52.664Z,2.70
2023-02-28T14:48:19.916Z,2.10
2023-02-28T14:50:50.810Z,2.95
2023-02-28T14:53:19.910Z,1.75
2023-02-28T14:55:47.498Z,2.42
2023-02-28T14:58:22.404Z,5.13
2023-02-28T15:00:49.919Z,3.60
2023-02-28T15:03:21.265Z,5.15
2023-02-28T15:05:58.608Z,3.15
2023-02-28T15:08:25.782Z,7.07
2023-02-28T15:11:15.754Z,6.28
2023-02-28T15:13:53.220Z,8.75
2023-02-28T15:16:19.853Z,4.35
2023-02-28T15:18:46.390Z,2.47
2023-02-28T15:21:14.379Z,2.90
2023-02-28T15:23:42.237Z,2.78
2023-02-28T15:26:12.238Z,4.05
2023-02-28T15:28:38.809Z,5.25
2023-02-28T15:31:18.627Z,3.35
2023-02-28T15:33:53.550Z,3.10
2023-02-28T15:36:22.005Z,15.07
2023-02-28T15:38:51.580Z,3.17
2023-02-28T15:41:29.187Z,2.53
2023-02-28T15:46:22.393Z,5.47
2023-02-28T15:48:56.108Z,3.20
2023-02-28T15:51:29.275Z,5.45
2023-02-28T15:53:58.410Z,3.35
2023-02-28T15:56:24.938Z,3.05
2023-02-28T15:58:55.282Z,3.40
2023-02-28T16:01:26.447Z,2.33
2023-02-28T16:03:54.935Z,2.72
2023-02-28T16:06:27.718Z,2.95
2023-02-28T16:08:54.267Z,2.90
2023-02-28T16:11:22.657Z,2.30
2023-02-28T16:13:49.715Z,3.95
2023-02-28T16:16:25.241Z,2.78
2023-02-28T16:18:52.106Z,3.60
2023-02-28T16:21:18.664Z,6.40
2023-02-28T16:23:45.381Z,6.55
2023-02-28T16:26:23.724Z,4.60
2023-02-28T16:28:50.668Z,4.38
2023-02-28T16:31:17.643Z,4.85
2023-02-28T16:33:45.840Z,4.28
2023-02-28T16:36:20.250Z,4.18
2023-02-28T16:38:46.975Z,5.70
2023-02-28T16:41:18.213Z,5.07
2023-02-28T16:43:45.459Z,5.00
2023-02-28T16:46:13.078Z,4.70
2023-02-28T16:48:41.454Z,5.20
2023-02-28T16:51:17.485Z,8.80
2023-02-28T16:53:44.772Z,5.05
2023-02-28T16:56:24.715Z,3.38
2023-02-28T16:58:51.998Z,26.92
2023-02-28T17:01:22.798Z,21.00
2023-02-28T17:03:50.076Z,26.15
2023-02-28T17:06:18.850Z,7.75
2023-02-28T17:08:45.455Z,11.27
2023-02-28T17:11:11.994Z,9.98
2023-02-28T17:13:38.543Z,10.07
2023-02-28T17:16:05.367Z,10.30
2023-02-28T17:18:34.791Z,16.00
2023-02-28T17:21:02.014Z,11.73
2023-02-28T17:23:28.514Z,14.57
2023-02-28T17:25:57.813Z,18.38
2023-02-28T17:28:24.749Z,15.45
2023-02-28T17:30:51.391Z,6.85
2023-02-28T17:33:18.168Z,9.95
2023-02-28T17:35:44.837Z,18.05
2023-02-28T17:38:19.080Z,31.50
2023-02-28T17:40:45.838Z,13.95
2023-02-28T17:43:12.543Z,14.10
2023-02-28T17:45:39.230Z,22.80
2023-02-28T17:48:05.973Z,29.65
2023-02-28T17:50:32.974Z,36.05
2023-02-28T17:52:59.645Z,35.77
2023-02-28T17:55:26.207Z,32.22
2023-02-28T17:57:52.763Z,27.63
2023-02-28T18:00:19.613Z,20.20
2023-02-28T18:02:46.220Z,26.80
2023-02-28T18:05:12.908Z,22.23
2023-02-28T18:07:39.860Z,25.45
2023-02-28T18:10:07.617Z,28.67
2023-02-28T18:12:34.181Z,27.80
2023-02-28T18:15:00.748Z,27.75
2023-02-28T18:17:27.390Z,23.33
2023-02-28T18:19:53.923Z,23.65
2023-02-28T18:22:20.494Z,14.18
2023-02-28T18:24:47.067Z,14.30
2023-02-28T18:27:13.670Z,16.90
2023-02-28T18:29:41.732Z,21.77
2023-02-28T18:32:09.934Z,16.00
2023-02-28T18:34:36.588Z,15.43
2023-02-28T18:37:03.579Z,18.05
2023-02-28T18:39:30.439Z,30.25
2023-02-28T18:41:57.106Z,31.67
2023-02-28T18:44:23.679Z,20.77
2023-02-28T18:46:50.601Z,20.83
2023-02-28T18:49:17.691Z,22.13
2023-02-28T18:51:45.532Z,23.07
2023-02-28T18:54:16.240Z,37.75
2023-02-28T18:56:43.135Z,49.78
2023-02-28T18:59:10.575Z,40.78
2023-02-28T19:01:37.276Z,42.45
2023-02-28T19:04:04.482Z,34.05
2023-02-28T19:06:32.403Z,31.95
2023-02-28T19:09:01.410Z,33.90
2023-02-28T19:11:28.319Z,31.60
2023-02-28T19:13:55.142Z,22.83
2023-02-28T19:16:22.101Z,32.33
2023-02-28T19:18:49.056Z,35.67
2023-02-28T19:21:16.489Z,33.22
2023-02-28T19:23:43.289Z,35.17
2023-02-28T19:26:11.269Z,34.03
2023-02-28T19:31:05.291Z,30.55
2023-02-28T19:33:31.956Z,33.72
2023-02-28T19:36:01.631Z,31.27
2023-02-28T19:38:28.201Z,33.03
2023-02-28T19:41:14.042Z,27.42
2023-02-28T19:43:40.890Z,25.58
2023-02-28T19:46:09.592Z,24.70
2023-02-28T19:48:36.588Z,27.55
2023-02-28T19:51:05.151Z,25.48
2023-02-28T19:53:32.569Z,25.85
2023-02-28T19:56:00.519Z,23.50
2023-02-28T20:00:53.875Z,17.08
2023-02-28T20:03:20.729Z,20.45
2023-02-28T20:05:47.851Z,19.08
2023-02-28T20:08:14.956Z,16.73
2023-02-28T20:10:41.606Z,16.05
2023-02-28T20:13:08.702Z,20.13
2023-02-28T20:15:36.434Z,16.97
2023-02-28T20:18:03.206Z,14.57
2023-02-28T20:20:29.759Z,22.92
2023-02-28T20:22:56.300Z,21.48
2023-02-28T20:25:22.828Z,26.17
2023-02-28T20:27:49.370Z,20.02
2023-02-28T20:30:16.054Z,20.13
2023-02-28T20:32:42.600Z,15.32
2023-02-28T20:35:11.631Z,19.55
2023-02-28T20:37:38.790Z,21.02
2023-02-28T20:40:06.374Z,23.00
2023-02-28T20:42:32.982Z,15.45
2023-02-28T20:44:59.543Z,16.20
2023-02-28T20:47:26.196Z,11.57
2023-02-28T20:49:52.812Z,17.73
2023-02-28T20:52:19.388Z,20.42
2023-02-28T20:54:45.933Z,19.35
2023-02-28T20:57:12.553Z,18.73
2023-02-28T20:59:41.163Z,13.77
2023-02-28T21:02:07.875Z,10.65
2023-02-28T21:04:34.469Z,14.43
2023-02-28T21:07:01.029Z,10.75
2023-02-28T21:09:28.947Z,11.15
2023-02-28T21:14:22.116Z,15.30
2023-02-28T21:16:48.653Z,14.68
2023-02-28T21:19:16.194Z,13.05
2023-02-28T21:21:44.037Z,12.43
2023-02-28T21:24:14.513Z,13.77
2023-02-28T21:26:41.743Z,12.40
2023-02-28T21:29:08.350Z,10.77
2023-02-28T21:31:35.552Z,12.00
2023-02-28T21:34:02.850Z,11.43
2023-02-28T21:36:32.978Z,12.43
2023-02-28T21:39:01.468Z,12.52
2023-02-28T21:41:28.492Z,11.57
2023-02-28T21:43:55.495Z,10.38
2023-02-28T21:46:23.128Z,10.87
2023-02-28T21:48:49.857Z,10.85
2023-02-28T21:51:18.277Z,10.15
2023-02-28T21:53:44.932Z,10.45
2023-02-28T21:56:13.277Z,10.10
2023-02-28T21:58:40.107Z,8.15
2023-02-28T22:01:07.959Z,9.68
2023-02-28T22:03:34.846Z,18.85
2023-02-28T22:06:01.517Z,17.70
2023-02-28T22:08:28.233Z,11.77
2023-02-28T22:10:54.825Z,9.77
2023-02-28T22:13:21.389Z,9.65
2023-02-28T22:15:48.592Z,9.32
2023-02-28T22:18:15.229Z,9.23
2023-02-28T22:20:41.805Z,10.75
2023-02-28T22:23:08.536Z,9.98
2023-02-28T22:25:36.893Z,10.07
2023-02-28T22:28:03.505Z,11.50
2023-02-28T22:30:30.088Z,9.82
2023-02-28T22:32:56.628Z,11.75
2023-02-28T22:35:23.232Z,9.52
2023-02-28T22:37:49.793Z,8.63
2023-02-28T22:40:16.401Z,7.97
2023-02-28T22:42:43.041Z,10.07
2023-02-28T22:45:09.757Z,11.68
2023-02-28T22:47:36.368Z,10.10
2023-02-28T22:50:03.055Z,9.18
2023-02-28T22:52:29.651Z,12.23
2023-02-28T22:54:56.261Z,10.20
2023-02-28T22:57:22.812Z,9.55
2023-02-28T22:59:49.356Z,11.90
2023-02-28T23:02:16.007Z,14.23
2023-02-28T23:04:42.519Z,10.63
2023-02-28T23:07:09.187Z,13.43
2023-02-28T23:09:35.718Z,15.45
2023-02-28T23:12:02.279Z,12.02
2023-02-28T23:14:28.848Z,12.90
2023-02-28T23:16:55.667Z,10.55
2023-02-28T23:19:24.090Z,12.98
2023-02-28T23:21:50.862Z,10.07
2023-02-28T23:24:18.407Z,9.57
2023-02-28T23:26:46.358Z,9.75
2023-02-28T23:31:39.632Z,10.75
2023-02-28T23:34:07.475Z,12.88
2023-02-28T23:36:34.142Z,11.05
2023-02-28T23:39:00.802Z,10.18
2023-02-28T23:41:27.321Z,9.27
2023-02-28T23:43:54.162Z,9.63
2023-02-28T23:46:21.401Z,8.90
2023-02-28T23:48:47.960Z,9.48
2023-02-28T23:51:19.204Z,9.25
2023-02-28T23:53:46.969Z,9.82
2023-02-28T23:56:15.050Z,13.48
2023-02-28T23:58:42.166Z,11.45
